sensor_id;sensor_type;location;lat;lon;timestamp;pressure;altitude;pressure_sealevel;temperature;humidity
57024;BME280;42916;54.346;18.562;2023-02-21T00:00:33;98726.00;;;6.17;80.33
57024;BME280;42916;54.346;18.562;2023-02-21T00:03:23;98723.51;;;6.19;80.31
57024;BME280;42916;54.346;18.562;2023-02-21T00:06:08;98720.60;;;6.18;80.49
57024;BME280;42916;54.346;18.562;2023-02-21T00:08:53;98729.61;;;6.16;80.65
57024;BME280;42916;54.346;18.562;2023-02-21T00:11:41;98715.14;;;6.14;80.69
57024;BME280;42916;54.346;18.562;2023-02-21T00:14:26;98736.20;;;6.15;80.41
57024;BME280;42916;54.346;18.562;2023-02-21T00:17:12;98734.37;;;6.16;80.21
57024;BME280;42916;54.346;18.562;2023-02-21T00:19:57;98742.63;;;6.14;80.34
57024;BME280;42916;54.346;18.562;2023-02-21T00:22:44;98740.51;;;6.11;80.57
57024;BME280;42916;54.346;18.562;2023-02-21T00:25:30;98740.83;;;6.08;80.41
57024;BME280;42916;54.346;18.562;2023-02-21T00:28:15;98740.29;;;6.08;80.46
57024;BME280;42916;54.346;18.562;2023-02-21T00:31:04;98753.84;;;6.08;80.40
57024;BME280;42916;54.346;18.562;2023-02-21T00:33:51;98753.72;;;6.06;80.43
57024;BME280;42916;54.346;18.562;2023-02-21T00:36:36;98754.64;;;6.02;80.77
57024;BME280;42916;54.346;18.562;2023-02-21T00:39:22;98759.86;;;6.01;80.79
57024;BME280;42916;54.346;18.562;2023-02-21T00:42:08;98758.19;;;6.00;80.78
57024;BME280;42916;54.346;18.562;2023-02-21T00:44:54;98745.66;;;5.99;81.05
57024;BME280;42916;54.346;18.562;2023-02-21T00:47:39;98738.80;;;5.97;81.19
57024;BME280;42916;54.346;18.562;2023-02-21T00:50:25;98749.83;;;5.98;80.80
57024;BME280;42916;54.346;18.562;2023-02-21T00:53:10;98726.64;;;5.96;81.27
57024;BME280;42916;54.346;18.562;2023-02-21T00:55:56;98748.36;;;5.94;81.34
57024;BME280;42916;54.346;18.562;2023-02-21T00:58:41;98726.39;;;5.93;81.22
57024;BME280;42916;54.346;18.562;2023-02-21T01:01:27;98732.91;;;5.91;80.95
57024;BME280;42916;54.346;18.562;2023-02-21T01:04:12;98730.48;;;5.90;81.11
57024;BME280;42916;54.346;18.562;2023-02-21T01:06:58;98724.48;;;5.89;81.62
57024;BME280;42916;54.346;18.562;2023-02-21T01:09:43;98779.05;;;5.89;81.60
57024;BME280;42916;54.346;18.562;2023-02-21T01:12:29;98735.23;;;5.88;81.19
57024;BME280;42916;54.346;18.562;2023-02-21T01:15:14;98741.77;;;5.86;81.27
57024;BME280;42916;54.346;18.562;2023-02-21T01:18:00;98744.02;;;5.87;81.09
57024;BME280;42916;54.346;18.562;2023-02-21T01:20:45;98746.30;;;5.86;81.42
57024;BME280;42916;54.346;18.562;2023-02-21T01:23:33;98723.79;;;5.83;81.25
57024;BME280;42916;54.346;18.562;2023-02-21T01:26:19;98752.38;;;5.83;81.16
57024;BME280;42916;54.346;18.562;2023-02-21T01:29:04;98757.02;;;5.81;80.88
57024;BME280;42916;54.346;18.562;2023-02-21T01:31:50;98729.44;;;5.82;80.64
57024;BME280;42916;54.346;18.562;2023-02-21T01:34:35;98747.84;;;5.81;81.07
57024;BME280;42916;54.346;18.562;2023-02-21T01:37:21;98715.51;;;5.80;81.08
57024;BME280;42916;54.346;18.562;2023-02-21T01:40:07;98724.13;;;5.77;81.05
57024;BME280;42916;54.346;18.562;2023-02-21T01:42:53;98721.80;;;5.76;81.03
57024;BME280;42916;54.346;18.562;2023-02-21T01:45:42;98730.51;;;5.75;81.52
57024;BME280;42916;54.346;18.562;2023-02-21T01:48:31;98711.65;;;5.72;81.91
57024;BME280;42916;54.346;18.562;2023-02-21T01:51:21;98719.52;;;5.69;81.81
57024;BME280;42916;54.346;18.562;2023-02-21T01:54:09;98714.83;;;5.70;81.42
57024;BME280;42916;54.346;18.562;2023-02-21T01:56:58;98708.25;;;5.69;81.60
57024;BME280;42916;54.346;18.562;2023-02-21T01:59:46;98720.98;;;5.68;81.26
57024;BME280;42916;54.346;18.562;2023-02-21T02:02:51;98703.19;;;5.72;80.71
57024;BME280;42916;54.346;18.562;2023-02-21T02:05:38;98706.80;;;5.73;80.61
57024;BME280;42916;54.346;18.562;2023-02-21T02:08:30;98699.78;;;5.73;80.59
57024;BME280;42916;54.346;18.562;2023-02-21T02:28:36;98702.39;;;5.59;81.51
57024;BME280;42916;54.346;18.562;2023-02-21T02:39:50;98690.04;;;5.68;79.58
57024;BME280;42916;54.346;18.562;2023-02-21T02:48:05;98685.16;;;5.72;78.60
57024;BME280;42916;54.346;18.562;2023-02-21T02:50:35;98692.28;;;5.71;78.54
57024;BME280;42916;54.346;18.562;2023-02-21T02:53:03;98695.73;;;5.70;79.06
57024;BME280;42916;54.346;18.562;2023-02-21T02:55:38;98692.43;;;5.69;79.25
57024;BME280;42916;54.346;18.562;2023-02-21T02:58:09;98701.48;;;5.65;79.58
57024;BME280;42916;54.346;18.562;2023-02-21T03:00:42;98699.43;;;5.63;80.03
57024;BME280;42916;54.346;18.562;2023-02-21T03:09:06;98709.71;;;5.60;80.98
57024;BME280;42916;54.346;18.562;2023-02-21T03:11:36;98718.51;;;5.58;81.17
57024;BME280;42916;54.346;18.562;2023-02-21T03:14:16;98739.11;;;5.57;81.41
57024;BME280;42916;54.346;18.562;2023-02-21T03:16:50;98735.06;;;5.59;81.45
57024;BME280;42916;54.346;18.562;2023-02-21T03:19:21;98726.55;;;5.59;81.51
57024;BME280;42916;54.346;18.562;2023-02-21T03:22:00;98713.65;;;5.58;81.64
57024;BME280;42916;54.346;18.562;2023-02-21T03:24:28;98730.05;;;5.58;81.58
57024;BME280;42916;54.346;18.562;2023-02-21T03:27:01;98747.48;;;5.58;81.23
57024;BME280;42916;54.346;18.562;2023-02-21T03:29:51;98753.48;;;5.59;81.23
57024;BME280;42916;54.346;18.562;2023-02-21T03:32:29;98768.75;;;5.61;80.72
57024;BME280;42916;54.346;18.562;2023-02-21T03:34:59;98750.61;;;5.61;80.84
57024;BME280;42916;54.346;18.562;2023-02-21T03:40:08;98775.02;;;5.63;80.07
57024;BME280;42916;54.346;18.562;2023-02-21T03:42:36;98767.41;;;5.64;80.03
57024;BME280;42916;54.346;18.562;2023-02-21T03:45:03;98765.96;;;5.64;79.74
57024;BME280;42916;54.346;18.562;2023-02-21T03:47:30;98768.21;;;5.64;79.81
57024;BME280;42916;54.346;18.562;2023-02-21T03:49:57;98769.63;;;5.63;79.64
57024;BME280;42916;54.346;18.562;2023-02-21T03:52:24;98776.67;;;5.60;79.84
57024;BME280;42916;54.346;18.562;2023-02-21T03:54:51;98773.43;;;5.58;80.10
57024;BME280;42916;54.346;18.562;2023-02-21T03:57:20;98770.30;;;5.60;80.13
57024;BME280;42916;54.346;18.562;2023-02-21T03:59:47;98783.37;;;5.61;79.95
57024;BME280;42916;54.346;18.562;2023-02-21T04:02:15;98770.98;;;5.63;79.77
57024;BME280;42916;54.346;18.562;2023-02-21T04:04:42;98766.82;;;5.63;79.81
57024;BME280;42916;54.346;18.562;2023-02-21T04:07:15;98766.98;;;5.63;80.07
57024;BME280;42916;54.346;18.562;2023-02-21T04:09:42;98778.48;;;5.64;80.18
57024;BME280;42916;54.346;18.562;2023-02-21T04:12:11;98767.69;;;5.62;80.40
57024;BME280;42916;54.346;18.562;2023-02-21T04:14:39;98773.19;;;5.63;80.58
57024;BME280;42916;54.346;18.562;2023-02-21T04:17:06;98766.92;;;5.62;80.79
57024;BME280;42916;54.346;18.562;2023-02-21T04:19:33;98756.61;;;5.61;80.56
57024;BME280;42916;54.346;18.562;2023-02-21T04:22:02;98767.20;;;5.64;80.90
57024;BME280;42916;54.346;18.562;2023-02-21T04:24:29;98767.36;;;5.64;81.11
57024;BME280;42916;54.346;18.562;2023-02-21T04:26:56;98774.38;;;5.63;81.10
57024;BME280;42916;54.346;18.562;2023-02-21T04:29:25;98783.75;;;5.63;80.92
57024;BME280;42916;54.346;18.562;2023-02-21T04:31:52;98787.10;;;5.63;80.95
57024;BME280;42916;54.346;18.562;2023-02-21T04:34:19;98774.80;;;5.63;80.90
57024;BME280;42916;54.346;18.562;2023-02-21T04:36:46;98769.41;;;5.64;81.23
57024;BME280;42916;54.346;18.562;2023-02-21T04:39:13;98796.92;;;5.64;81.15
57024;BME280;42916;54.346;18.562;2023-02-21T04:41:40;98780.03;;;5.65;80.89
57024;BME280;42916;54.346;18.562;2023-02-21T04:44:08;98772.70;;;5.65;80.74
57024;BME280;42916;54.346;18.562;2023-02-21T04:46:35;98777.23;;;5.63;81.23
57024;BME280;42916;54.346;18.562;2023-02-21T04:49:03;98779.23;;;5.63;81.41
57024;BME280;42916;54.346;18.562;2023-02-21T04:51:30;98795.25;;;5.63;81.35
57024;BME280;42916;54.346;18.562;2023-02-21T04:53:56;98801.02;;;5.62;81.56
57024;BME280;42916;54.346;18.562;2023-02-21T04:56:24;98802.95;;;5.59;81.82
57024;BME280;42916;54.346;18.562;2023-02-21T04:58:52;98788.86;;;5.60;81.97
57024;BME280;42916;54.346;18.562;2023-02-21T05:01:21;98800.52;;;5.59;82.22
57024;BME280;42916;54.346;18.562;2023-02-21T05:03:48;98802.13;;;5.58;82.38
57024;BME280;42916;54.346;18.562;2023-02-21T05:06:19;98806.77;;;5.57;82.35
57024;BME280;42916;54.346;18.562;2023-02-21T05:08:46;98810.26;;;5.56;82.44
57024;BME280;42916;54.346;18.562;2023-02-21T05:11:13;98815.38;;;5.54;82.43
57024;BME280;42916;54.346;18.562;2023-02-21T05:13:41;98812.35;;;5.55;82.46
57024;BME280;42916;54.346;18.562;2023-02-21T05:16:08;98814.89;;;5.55;82.63
57024;BME280;42916;54.346;18.562;2023-02-21T05:18:35;98811.44;;;5.55;82.49
57024;BME280;42916;54.346;18.562;2023-02-21T05:21:06;98812.46;;;5.55;82.13
57024;BME280;42916;54.346;18.562;2023-02-21T05:23:34;98820.45;;;5.56;81.94
57024;BME280;42916;54.346;18.562;2023-02-21T05:26:07;98813.11;;;5.56;81.90
57024;BME280;42916;54.346;18.562;2023-02-21T05:28:35;98818.42;;;5.57;81.84
57024;BME280;42916;54.346;18.562;2023-02-21T05:31:02;98823.66;;;5.59;81.58
57024;BME280;42916;54.346;18.562;2023-02-21T05:33:29;98837.20;;;5.61;81.52
57024;BME280;42916;54.346;18.562;2023-02-21T05:35:56;98843.25;;;5.59;81.67
57024;BME280;42916;54.346;18.562;2023-02-21T05:38:23;98843.99;;;5.59;81.75
57024;BME280;42916;54.346;18.562;2023-02-21T05:40:51;98842.38;;;5.59;82.00
57024;BME280;42916;54.346;18.562;2023-02-21T05:43:18;98843.20;;;5.58;82.23
57024;BME280;42916;54.346;18.562;2023-02-21T05:45:45;98853.54;;;5.58;82.38
57024;BME280;42916;54.346;18.562;2023-02-21T05:48:12;98855.47;;;5.56;82.37
57024;BME280;42916;54.346;18.562;2023-02-21T05:50:39;98866.20;;;5.55;82.42
57024;BME280;42916;54.346;18.562;2023-02-21T05:53:06;98857.53;;;5.57;82.54
57024;BME280;42916;54.346;18.562;2023-02-21T05:55:35;98862.60;;;5.58;82.65
57024;BME280;42916;54.346;18.562;2023-02-21T05:58:02;98862.38;;;5.57;82.67
57024;BME280;42916;54.346;18.562;2023-02-21T06:00:29;98874.74;;;5.57;82.70
57024;BME280;42916;54.346;18.562;2023-02-21T06:02:56;98870.64;;;5.58;82.78
57024;BME280;42916;54.346;18.562;2023-02-21T06:05:23;98873.61;;;5.59;82.79
57024;BME280;42916;54.346;18.562;2023-02-21T06:07:50;98883.60;;;5.60;82.82
57024;BME280;42916;54.346;18.562;2023-02-21T06:10:17;98888.52;;;5.61;82.99
57024;BME280;42916;54.346;18.562;2023-02-21T06:12:44;98886.79;;;5.60;82.94
57024;BME280;42916;54.346;18.562;2023-02-21T06:15:11;98887.91;;;5.60;83.02
57024;BME280;42916;54.346;18.562;2023-02-21T06:17:40;98896.08;;;5.60;82.84
57024;BME280;42916;54.346;18.562;2023-02-21T06:20:09;98911.33;;;5.60;82.85
57024;BME280;42916;54.346;18.562;2023-02-21T06:22:38;98915.23;;;5.62;82.81
57024;BME280;42916;54.346;18.562;2023-02-21T06:25:05;98916.30;;;5.61;83.00
57024;BME280;42916;54.346;18.562;2023-02-21T06:27:32;98929.38;;;5.61;83.04
57024;BME280;42916;54.346;18.562;2023-02-21T06:29:59;98937.41;;;5.62;82.92
57024;BME280;42916;54.346;18.562;2023-02-21T06:32:26;98929.15;;;5.61;82.91
57024;BME280;42916;54.346;18.562;2023-02-21T06:34:53;98939.78;;;5.61;83.15
57024;BME280;42916;54.346;18.562;2023-02-21T06:37:20;98937.90;;;5.63;83.29
57024;BME280;42916;54.346;18.562;2023-02-21T06:39:47;98939.91;;;5.64;83.36
57024;BME280;42916;54.346;18.562;2023-02-21T06:42:15;98954.80;;;5.64;83.33
57024;BME280;42916;54.346;18.562;2023-02-21T06:44:43;98952.15;;;5.64;83.28
57024;BME280;42916;54.346;18.562;2023-02-21T06:47:11;98954.95;;;5.62;83.32
57024;BME280;42916;54.346;18.562;2023-02-21T06:49:38;98954.73;;;5.62;83.35
57024;BME280;42916;54.346;18.562;2023-02-21T06:52:05;98976.70;;;5.63;83.57
57024;BME280;42916;54.346;18.562;2023-02-21T06:54:32;98964.02;;;5.65;83.60
57024;BME280;42916;54.346;18.562;2023-02-21T06:56:59;98971.20;;;5.65;83.62
57024;BME280;42916;54.346;18.562;2023-02-21T06:59:28;98976.55;;;5.65;83.62
57024;BME280;42916;54.346;18.562;2023-02-21T07:01:55;98976.23;;;5.65;83.67
57024;BME280;42916;54.346;18.562;2023-02-21T07:04:23;98983.52;;;5.67;83.82
57024;BME280;42916;54.346;18.562;2023-02-21T07:06:51;98985.95;;;5.67;84.01
57024;BME280;42916;54.346;18.562;2023-02-21T07:09:18;98989.24;;;5.67;84.21
57024;BME280;42916;54.346;18.562;2023-02-21T07:11:45;99004.67;;;5.66;84.17
57024;BME280;42916;54.346;18.562;2023-02-21T07:14:13;99003.59;;;5.66;84.16
57024;BME280;42916;54.346;18.562;2023-02-21T07:16:40;99002.72;;;5.67;84.08
57024;BME280;42916;54.346;18.562;2023-02-21T07:19:07;99009.23;;;5.70;84.15
57024;BME280;42916;54.346;18.562;2023-02-21T07:21:34;99018.48;;;5.73;84.32
57024;BME280;42916;54.346;18.562;2023-02-21T07:24:00;99022.06;;;5.74;84.34
57024;BME280;42916;54.346;18.562;2023-02-21T07:26:27;99030.10;;;5.75;84.13
57024;BME280;42916;54.346;18.562;2023-02-21T07:28:54;99021.27;;;5.77;84.05
57024;BME280;42916;54.346;18.562;2023-02-21T07:31:21;99021.39;;;5.78;84.04
57024;BME280;42916;54.346;18.562;2023-02-21T07:33:48;99036.79;;;5.81;84.06
57024;BME280;42916;54.346;18.562;2023-02-21T07:36:15;99035.78;;;5.82;84.07
57024;BME280;42916;54.346;18.562;2023-02-21T07:38:42;99045.60;;;5.83;83.87
57024;BME280;42916;54.346;18.562;2023-02-21T07:41:09;99040.59;;;5.84;83.62
57024;BME280;42916;54.346;18.562;2023-02-21T07:43:36;99048.27;;;5.84;83.47
57024;BME280;42916;54.346;18.562;2023-02-21T07:46:09;99056.05;;;5.86;83.57
57024;BME280;42916;54.346;18.562;2023-02-21T07:48:36;99058.34;;;5.89;83.58
57024;BME280;42916;54.346;18.562;2023-02-21T07:51:06;99067.59;;;5.91;83.84
57024;BME280;42916;54.346;18.562;2023-02-21T07:53:33;99063.88;;;5.92;83.30
57024;BME280;42916;54.346;18.562;2023-02-21T07:56:01;99066.04;;;5.93;83.07
57024;BME280;42916;54.346;18.562;2023-02-21T07:58:28;99070.05;;;5.94;83.16
57024;BME280;42916;54.346;18.562;2023-02-21T08:00:55;99066.82;;;5.97;83.51
57024;BME280;42916;54.346;18.562;2023-02-21T08:03:22;99074.61;;;6.01;83.42
57024;BME280;42916;54.346;18.562;2023-02-21T08:05:49;99071.77;;;6.03;83.16
57024;BME280;42916;54.346;18.562;2023-02-21T08:08:15;99088.99;;;6.04;82.88
57024;BME280;42916;54.346;18.562;2023-02-21T08:10:42;99073.79;;;6.06;82.86
57024;BME280;42916;54.346;18.562;2023-02-21T08:13:09;99082.66;;;6.09;82.87
57024;BME280;42916;54.346;18.562;2023-02-21T08:15:36;99084.00;;;6.13;82.72
57024;BME280;42916;54.346;18.562;2023-02-21T08:18:03;99081.82;;;6.17;82.92
57024;BME280;42916;54.346;18.562;2023-02-21T08:20:30;99089.59;;;6.25;82.94
57024;BME280;42916;54.346;18.562;2023-02-21T08:22:57;99091.33;;;6.27;82.44
57024;BME280;42916;54.346;18.562;2023-02-21T08:25:24;99101.39;;;6.28;82.28
57024;BME280;42916;54.346;18.562;2023-02-21T08:27:50;99095.34;;;6.28;82.30
57024;BME280;42916;54.346;18.562;2023-02-21T08:30:20;99111.23;;;6.30;82.40
57024;BME280;42916;54.346;18.562;2023-02-21T08:32:47;99122.79;;;6.28;81.76
57024;BME280;42916;54.346;18.562;2023-02-21T08:35:15;99113.91;;;6.27;81.82
57024;BME280;42916;54.346;18.562;2023-02-21T08:37:47;99115.32;;;6.26;82.03
57024;BME280;42916;54.346;18.562;2023-02-21T08:40:18;99133.27;;;6.28;82.33
57024;BME280;42916;54.346;18.562;2023-02-21T08:42:49;99130.47;;;6.31;82.29
57024;BME280;42916;54.346;18.562;2023-02-21T08:45:19;99138.16;;;6.33;82.15
57024;BME280;42916;54.346;18.562;2023-02-21T08:47:47;99147.30;;;6.36;82.23
57024;BME280;42916;54.346;18.562;2023-02-21T08:50:14;99138.20;;;6.38;82.35
57024;BME280;42916;54.346;18.562;2023-02-21T08:52:41;99152.26;;;6.40;82.40
57024;BME280;42916;54.346;18.562;2023-02-21T08:55:08;99143.41;;;6.42;82.38
57024;BME280;42916;54.346;18.562;2023-02-21T08:57:35;99151.80;;;6.42;81.95
57024;BME280;42916;54.346;18.562;2023-02-21T09:00:03;99157.92;;;6.38;81.51
57024;BME280;42916;54.346;18.562;2023-02-21T09:02:40;99169.52;;;6.37;81.89
57024;BME280;42916;54.346;18.562;2023-02-21T09:05:11;99159.84;;;6.37;81.93
57024;BME280;42916;54.346;18.562;2023-02-21T09:07:39;99166.71;;;6.37;82.22
57024;BME280;42916;54.346;18.562;2023-02-21T09:10:06;99171.80;;;6.37;82.01
57024;BME280;42916;54.346;18.562;2023-02-21T09:12:36;99183.88;;;6.37;82.00
57024;BME280;42916;54.346;18.562;2023-02-21T09:15:04;99183.52;;;6.36;82.12
57024;BME280;42916;54.346;18.562;2023-02-21T09:17:31;99190.15;;;6.37;82.19
57024;BME280;42916;54.346;18.562;2023-02-21T09:20:06;99193.16;;;6.35;81.84
57024;BME280;42916;54.346;18.562;2023-02-21T09:22:34;99206.48;;;6.33;81.86
57024;BME280;42916;54.346;18.562;2023-02-21T09:25:02;99201.83;;;6.32;82.20
57024;BME280;42916;54.346;18.562;2023-02-21T09:27:29;99211.04;;;6.33;82.03
57024;BME280;42916;54.346;18.562;2023-02-21T09:30:11;99217.67;;;6.33;82.11
57024;BME280;42916;54.346;18.562;2023-02-21T09:32:39;99220.74;;;6.33;82.18
57024;BME280;42916;54.346;18.562;2023-02-21T09:35:07;99217.03;;;6.34;82.27
57024;BME280;42916;54.346;18.562;2023-02-21T09:37:41;99226.23;;;6.34;82.33
57024;BME280;42916;54.346;18.562;2023-02-21T09:42:53;99227.33;;;6.30;82.43
57024;BME280;42916;54.346;18.562;2023-02-21T09:45:30;99229.76;;;6.31;82.50
57024;BME280;42916;54.346;18.562;2023-02-21T09:48:04;99236.94;;;6.32;82.41
57024;BME280;42916;54.346;18.562;2023-02-21T09:50:40;99243.98;;;6.31;82.38
57024;BME280;42916;54.346;18.562;2023-02-21T09:53:12;99247.73;;;6.30;82.34
57024;BME280;42916;54.346;18.562;2023-02-21T09:55:40;99250.80;;;6.29;82.03
57024;BME280;42916;54.346;18.562;2023-02-21T09:58:18;99257.46;;;6.26;82.08
57024;BME280;42916;54.346;18.562;2023-02-21T10:00:46;99258.55;;;6.25;82.22
57024;BME280;42916;54.346;18.562;2023-02-21T10:11:58;99283.64;;;6.29;82.47
57024;BME280;42916;54.346;18.562;2023-02-21T10:14:48;99288.14;;;6.26;82.65
57024;BME280;42916;54.346;18.562;2023-02-21T10:17:30;99286.20;;;6.26;82.63
57024;BME280;42916;54.346;18.562;2023-02-21T10:20:04;99294.02;;;6.29;82.59
57024;BME280;42916;54.346;18.562;2023-02-21T10:22:39;99301.70;;;6.29;82.46
57024;BME280;42916;54.346;18.562;2023-02-21T10:25:23;99308.77;;;6.30;82.34
57024;BME280;42916;54.346;18.562;2023-02-21T10:27:52;99305.58;;;6.29;82.36
57024;BME280;42916;54.346;18.562;2023-02-21T10:30:32;99302.58;;;6.30;82.48
57024;BME280;42916;54.346;18.562;2023-02-21T10:33:02;99319.61;;;6.33;82.45
57024;BME280;42916;54.346;18.562;2023-02-21T10:35:33;99313.13;;;6.39;82.15
57024;BME280;42916;54.346;18.562;2023-02-21T10:38:02;99314.90;;;6.43;82.19
57024;BME280;42916;54.346;18.562;2023-02-21T10:40:42;99318.30;;;6.47;82.21
57024;BME280;42916;54.346;18.562;2023-02-21T10:48:42;99322.50;;;6.51;82.07
57024;BME280;42916;54.346;18.562;2023-02-21T10:54:23;99333.65;;;6.58;81.92
57024;BME280;42916;54.346;18.562;2023-02-21T10:56:52;99331.83;;;6.60;81.91
57024;BME280;42916;54.346;18.562;2023-02-21T10:59:31;99340.89;;;6.63;81.93
57024;BME280;42916;54.346;18.562;2023-02-21T11:02:01;99340.11;;;6.67;81.95
57024;BME280;42916;54.346;18.562;2023-02-21T11:04:32;99343.31;;;6.69;81.67
57024;BME280;42916;54.346;18.562;2023-02-21T11:07:09;99345.55;;;6.71;81.88
57024;BME280;42916;54.346;18.562;2023-02-21T11:09:45;99352.95;;;6.74;81.84
57024;BME280;42916;54.346;18.562;2023-02-21T11:17:22;99356.85;;;6.75;81.61
57024;BME280;42916;54.346;18.562;2023-02-21T11:19:57;99367.21;;;6.75;81.25
57024;BME280;42916;54.346;18.562;2023-02-21T11:25:05;99369.38;;;6.75;80.76
57024;BME280;42916;54.346;18.562;2023-02-21T11:27:35;99371.67;;;6.78;80.97
57024;BME280;42916;54.346;18.562;2023-02-21T11:30:13;99367.13;;;6.83;80.95
57024;BME280;42916;54.346;18.562;2023-02-21T11:32:48;99379.33;;;6.87;80.63
57024;BME280;42916;54.346;18.562;2023-02-21T11:37:59;99385.31;;;6.92;80.62
57024;BME280;42916;54.346;18.562;2023-02-21T11:40:49;99389.48;;;6.90;79.82
57024;BME280;42916;54.346;18.562;2023-02-21T11:43:25;99391.89;;;6.88;79.87
57024;BME280;42916;54.346;18.562;2023-02-21T11:49:10;99396.85;;;6.81;79.73
57024;BME280;42916;54.346;18.562;2023-02-21T11:51:50;99395.54;;;6.75;79.58
57024;BME280;42916;54.346;18.562;2023-02-21T11:54:23;99397.23;;;6.71;79.79
57024;BME280;42916;54.346;18.562;2023-02-21T11:57:02;99399.55;;;6.70;80.21
57024;BME280;42916;54.346;18.562;2023-02-21T12:05:29;99402.60;;;6.77;80.24
57024;BME280;42916;54.346;18.562;2023-02-21T12:24:28;99425.41;;;6.89;79.86
57024;BME280;42916;54.346;18.562;2023-02-21T12:27:29;99433.61;;;6.92;79.52
57024;BME280;42916;54.346;18.562;2023-02-21T12:30:04;99436.38;;;6.88;79.78
57024;BME280;42916;54.346;18.562;2023-02-21T12:32:49;99440.07;;;6.89;79.92
57024;BME280;42916;54.346;18.562;2023-02-21T12:38:30;99448.05;;;6.97;80.06
57024;BME280;42916;54.346;18.562;2023-02-21T12:41:24;99448.23;;;7.10;80.25
57024;BME280;42916;54.346;18.562;2023-02-21T12:46:34;99449.14;;;7.27;78.78
57024;BME280;42916;54.346;18.562;2023-02-21T12:49:05;99447.05;;;7.22;78.43
57024;BME280;42916;54.346;18.562;2023-02-21T12:51:38;99453.42;;;7.20;78.59
57024;BME280;42916;54.346;18.562;2023-02-21T12:54:15;99443.30;;;7.21;78.46
57024;BME280;42916;54.346;18.562;2023-02-21T12:57:04;99451.91;;;7.27;78.75
57024;BME280;42916;54.346;18.562;2023-02-21T13:00:35;99454.68;;;7.34;78.08
57024;BME280;42916;54.346;18.562;2023-02-21T13:02:58;99464.14;;;7.34;77.66
57024;BME280;42916;54.346;18.562;2023-02-21T13:05:36;99453.73;;;7.30;77.79
57024;BME280;42916;54.346;18.562;2023-02-21T13:08:37;99454.09;;;7.29;78.06
57024;BME280;42916;54.346;18.562;2023-02-21T13:11:15;99453.12;;;7.30;78.19
57024;BME280;42916;54.346;18.562;2023-02-21T13:13:45;99469.54;;;7.33;78.25
57024;BME280;42916;54.346;18.562;2023-02-21T13:16:13;99465.52;;;7.31;78.21
57024;BME280;42916;54.346;18.562;2023-02-21T13:18:48;99467.03;;;7.31;77.75
57024;BME280;42916;54.346;18.562;2023-02-21T13:27:50;99486.37;;;7.16;77.39
57024;BME280;42916;54.346;18.562;2023-02-21T13:30:14;99483.60;;;7.10;77.62
57024;BME280;42916;54.346;18.562;2023-02-21T13:32:54;99487.41;;;7.12;77.79
57024;BME280;42916;54.346;18.562;2023-02-21T13:35:30;99493.55;;;7.10;77.66
57024;BME280;42916;54.346;18.562;2023-02-21T13:37:59;99500.97;;;7.05;77.12
57024;BME280;42916;54.346;18.562;2023-02-21T13:40:50;99508.99;;;7.02;77.11
57024;BME280;42916;54.346;18.562;2023-02-21T13:43:28;99511.19;;;7.00;76.52
57024;BME280;42916;54.346;18.562;2023-02-21T13:46:54;99517.61;;;6.98;76.69
57024;BME280;42916;54.346;18.562;2023-02-21T13:49:37;99521.09;;;6.95;76.53
57024;BME280;42916;54.346;18.562;2023-02-21T13:57:45;99531.88;;;6.80;76.87
57024;BME280;42916;54.346;18.562;2023-02-21T14:08:43;99548.06;;;6.85;77.38
57024;BME280;42916;54.346;18.562;2023-02-21T14:11:22;99552.98;;;6.89;77.81
57024;BME280;42916;54.346;18.562;2023-02-21T14:13:57;99559.14;;;6.90;77.54
57024;BME280;42916;54.346;18.562;2023-02-21T14:16:46;99563.23;;;6.92;77.65
57024;BME280;42916;54.346;18.562;2023-02-21T14:19:22;99573.96;;;6.93;77.69
57024;BME280;42916;54.346;18.562;2023-02-21T14:22:12;99575.05;;;6.95;77.87
57024;BME280;42916;54.346;18.562;2023-02-21T14:24:48;99583.50;;;6.95;78.20
57024;BME280;42916;54.346;18.562;2023-02-21T14:39:48;99606.39;;;6.72;77.35
57024;BME280;42916;54.346;18.562;2023-02-21T14:42:26;99604.44;;;6.69;77.36
57024;BME280;42916;54.346;18.562;2023-02-21T15:05:30;99642.20;;;6.51;78.20
57024;BME280;42916;54.346;18.562;2023-02-21T15:08:15;99648.27;;;6.50;78.13
57024;BME280;42916;54.346;18.562;2023-02-21T15:10:44;99656.88;;;6.48;78.18
57024;BME280;42916;54.346;18.562;2023-02-21T15:13:32;99659.21;;;6.44;78.17
57024;BME280;42916;54.346;18.562;2023-02-21T15:16:05;99662.14;;;6.41;78.57
57024;BME280;42916;54.346;18.562;2023-02-21T15:18:37;99665.52;;;6.40;78.49
57024;BME280;42916;54.346;18.562;2023-02-21T15:21:17;99661.70;;;6.37;78.70
57024;BME280;42916;54.346;18.562;2023-02-21T15:23:46;99666.45;;;6.38;79.03
57024;BME280;42916;54.346;18.562;2023-02-21T15:26:23;99668.02;;;6.37;79.39
57024;BME280;42916;54.346;18.562;2023-02-21T15:31:46;99679.83;;;6.35;79.97
57024;BME280;42916;54.346;18.562;2023-02-21T15:34:51;99679.97;;;6.35;80.02
57024;BME280;42916;54.346;18.562;2023-02-21T15:37:22;99686.96;;;6.33;80.19
57024;BME280;42916;54.346;18.562;2023-02-21T15:39:56;99691.69;;;6.31;80.27
57024;BME280;42916;54.346;18.562;2023-02-21T15:42:26;99695.02;;;6.33;80.48
57024;BME280;42916;54.346;18.562;2023-02-21T15:45:00;99697.30;;;6.33;80.70
57024;BME280;42916;54.346;18.562;2023-02-21T15:47:28;99703.04;;;6.34;80.94
57024;BME280;42916;54.346;18.562;2023-02-21T15:52:46;99717.00;;;6.29;81.35
57024;BME280;42916;54.346;18.562;2023-02-21T15:55:34;99718.44;;;6.28;81.36
57024;BME280;42916;54.346;18.562;2023-02-21T16:00:39;99722.09;;;6.25;81.56
57024;BME280;42916;54.346;18.562;2023-02-21T16:03:30;99724.99;;;6.23;81.70
57024;BME280;42916;54.346;18.562;2023-02-21T16:08:53;99729.89;;;6.22;81.93
57024;BME280;42916;54.346;18.562;2023-02-21T16:12:03;99733.74;;;6.20;82.12
57024;BME280;42916;54.346;18.562;2023-02-21T16:14:43;99736.58;;;6.16;82.51
57024;BME280;42916;54.346;18.562;2023-02-21T16:17:28;99740.59;;;6.14;82.48
57024;BME280;42916;54.346;18.562;2023-02-21T16:19:58;99747.88;;;6.13;82.42
57024;BME280;42916;54.346;18.562;2023-02-21T16:25:16;99753.92;;;6.10;82.65